createdAt,value
2017-12-09T00:00:10.574Z,924.92
2017-12-09T00:00:38.679Z,924.91
2017-12-09T00:01:06.747Z,924.95
2017-12-09T00:01:34.846Z,924.93
2017-12-09T00:02:02.954Z,924.95
2017-12-09T00:02:31.059Z,924.95
2017-12-09T00:02:59.178Z,924.94
2017-12-09T00:03:27.291Z,924.94
2017-12-09T00:03:55.421Z,924.98
2017-12-09T00:04:23.526Z,925
2017-12-09T00:04:51.642Z,925
2017-12-09T00:05:19.641Z,924.99
2017-12-09T00:05:47.885Z,925.01
2017-12-09T00:06:15.999Z,925.03
2017-12-09T00:06:44.134Z,925.02
2017-12-09T00:07:12.214Z,925.03
2017-12-09T00:07:40.297Z,925.03
2017-12-09T00:08:08.383Z,925.05
2017-12-09T00:08:36.467Z,925.05
2017-12-09T00:09:04.363Z,925.05
2017-12-09T00:09:32.493Z,925.05
2017-12-09T00:10:00.623Z,924.99
2017-12-09T00:10:28.654Z,925.08
2017-12-09T00:10:56.848Z,925.06
2017-12-09T00:11:24.805Z,925.03
2017-12-09T00:11:52.834Z,925.06
2017-12-09T00:12:20.944Z,925.06
2017-12-09T00:12:49.082Z,925.04
2017-12-09T00:13:17.036Z,925.07
2017-12-09T00:13:45.121Z,925.05
2017-12-09T00:14:13.107Z,925.06
2017-12-09T00:14:40.996Z,925.02
2017-12-09T00:15:08.995Z,925.08
2017-12-09T00:15:37.178Z,925.04
2017-12-09T00:16:05.169Z,925.04
2017-12-09T00:16:33.081Z,925.04
2017-12-09T00:17:00.975Z,925.04
2017-12-09T00:17:28.969Z,925.04
2017-12-09T00:17:56.966Z,925.1
2017-12-09T00:18:25.062Z,925.02
2017-12-09T00:18:53.064Z,925.04
2017-12-09T00:19:21.093Z,925.08
2017-12-09T00:19:49.064Z,925.09
2017-12-09T00:20:17.031Z,925.11
2017-12-09T00:20:45.158Z,925.13
2017-12-09T00:21:13.152Z,925.12
2017-12-09T00:21:40.951Z,925.09
2017-12-09T00:22:08.945Z,925.1
2017-12-09T00:22:36.966Z,925.13
2017-12-09T00:23:04.948Z,925.13
2017-12-09T00:23:32.956Z,925.13
2017-12-09T00:24:00.867Z,925.13
2017-12-09T00:24:28.980Z,925.12
2017-12-09T00:24:56.909Z,925.1
2017-12-09T00:25:24.903Z,925.12
2017-12-09T00:25:53.016Z,925.11
2017-12-09T00:26:21.118Z,925.12
2017-12-09T00:26:49.226Z,925.13
2017-12-09T00:27:17.274Z,925.14
2017-12-09T00:27:45.179Z,925.14
2017-12-09T00:28:13.190Z,925.12
2017-12-09T00:28:41.175Z,925.12
2017-12-09T00:29:09.138Z,925.13
2017-12-09T00:29:37.030Z,925.14
2017-12-09T00:30:04.926Z,925.15
2017-12-09T00:30:32.949Z,925.15
2017-12-09T00:31:01.161Z,925.14
2017-12-09T00:31:29.253Z,925.13
2017-12-09T00:31:57.252Z,925.14
2017-12-09T00:32:25.158Z,925.14
2017-12-09T00:32:53.030Z,925.15
2017-12-09T00:33:21.101Z,925.15
2017-12-09T00:33:49.202Z,925.17
2017-12-09T00:34:17.193Z,925.19
2017-12-09T00:34:45.187Z,925.17
2017-12-09T00:35:13.231Z,925.21
2017-12-09T00:35:41.196Z,925.2
2017-12-09T00:36:09.475Z,925.2
2017-12-09T00:36:37.600Z,925.19
2017-12-09T00:37:05.702Z,925.2
2017-12-09T00:37:33.609Z,925.23
2017-12-09T00:38:01.598Z,925.19
2017-12-09T00:38:29.594Z,925.17
2017-12-09T00:38:57.290Z,925.2
2017-12-09T00:39:25.401Z,925.19
2017-12-09T00:39:53.500Z,925.22
2017-12-09T00:40:21.606Z,925.2
2017-12-09T00:40:49.592Z,925.21
2017-12-09T00:41:17.502Z,925.21
2017-12-09T00:41:45.498Z,925.21
2017-12-09T00:42:13.600Z,925.2
2017-12-09T00:42:41.709Z,925.18
2017-12-09T00:43:09.728Z,925.19
2017-12-09T00:43:37.793Z,925.22
2017-12-09T00:44:05.774Z,925.22
2017-12-09T00:44:33.780Z,925.25
2017-12-09T00:45:01.789Z,925.21
2017-12-09T00:45:29.888Z,925.22
2017-12-09T00:45:58.037Z,925.25
2017-12-09T00:46:26.044Z,925.26
2017-12-09T00:46:54.064Z,925.23
2017-12-09T00:47:22.075Z,925.26
2017-12-09T00:47:49.986Z,925.28
2017-12-09T00:48:18.107Z,925.28
2017-12-09T00:48:46.128Z,925.26
2017-12-09T00:49:14.121Z,925.28
2017-12-09T00:49:42.108Z,925.26
2017-12-09T00:50:10.217Z,925.26
2017-12-09T00:50:38.228Z,925.29
2017-12-09T00:51:06.490Z,925.31
2017-12-09T00:51:34.458Z,925.29
2017-12-09T00:52:02.568Z,925.29
2017-12-09T00:52:30.485Z,925.3
2017-12-09T00:52:58.606Z,925.31
2017-12-09T00:53:26.682Z,925.34
2017-12-09T00:53:54.701Z,925.33
2017-12-09T00:54:22.706Z,925.37
2017-12-09T00:54:50.821Z,925.35
2017-12-09T00:55:18.832Z,925.32
2017-12-09T00:55:46.810Z,925.34
2017-12-09T00:56:14.959Z,925.38
2017-12-09T00:56:42.984Z,925.41
2017-12-09T00:57:11.065Z,925.39
2017-12-09T00:57:39.166Z,925.41
2017-12-09T00:58:07.162Z,925.38
2017-12-09T00:58:35.051Z,925.41
2017-12-09T00:59:03.155Z,925.37
2017-12-09T00:59:31.148Z,925.39
2017-12-09T00:59:59.076Z,925.35
2017-12-09T01:00:27.208Z,925.34
2017-12-09T01:00:55.353Z,925.35
2017-12-09T01:01:23.432Z,925.36
2017-12-09T01:01:51.541Z,925.37
2017-12-09T01:02:19.539Z,925.36
2017-12-09T01:02:47.542Z,925.34
2017-12-09T01:03:15.588Z,925.35
2017-12-09T01:03:43.400Z,925.34
2017-12-09T01:04:11.423Z,925.34
2017-12-09T01:04:39.501Z,925.35
2017-12-09T01:05:07.396Z,925.37
2017-12-09T01:05:35.325Z,925.37
2017-12-09T01:06:03.486Z,925.36
2017-12-09T01:06:31.574Z,925.36
2017-12-09T01:06:59.682Z,925.36
2017-12-09T01:07:27.781Z,925.37
2017-12-09T01:07:55.887Z,925.39
2017-12-09T01:08:23.781Z,925.41
2017-12-09T01:08:51.788Z,925.37
2017-12-09T01:09:19.840Z,925.38
2017-12-09T01:09:47.799Z,925.36
2017-12-09T01:10:15.783Z,925.35
2017-12-09T01:10:43.901Z,925.35
2017-12-09T01:11:11.945Z,925.34
2017-12-09T01:11:39.930Z,925.35
2017-12-09T01:12:07.924Z,925.35
2017-12-09T01:12:35.942Z,925.36
2017-12-09T01:13:03.963Z,925.35
2017-12-09T01:13:32.068Z,925.38
2017-12-09T01:14:00.148Z,925.36
2017-12-09T01:14:28.285Z,925.38
2017-12-09T01:14:56.395Z,925.35
2017-12-09T01:15:24.415Z,925.34
2017-12-09T01:15:52.548Z,925.36
2017-12-09T01:16:20.784Z,925.33
2017-12-09T01:16:48.893Z,925.35
2017-12-09T01:17:16.805Z,925.37
2017-12-09T01:17:44.872Z,925.35
2017-12-09T01:18:12.988Z,925.36
2017-12-09T01:18:41.112Z,925.37
2017-12-09T01:19:09.212Z,925.35
2017-12-09T01:19:37.231Z,925.41
2017-12-09T01:20:05.204Z,925.37
2017-12-09T01:20:33.223Z,925.37
2017-12-09T01:21:01.316Z,925.37
2017-12-09T01:21:29.414Z,925.38
2017-12-09T01:21:57.530Z,925.42
2017-12-09T01:22:25.460Z,925.41
2017-12-09T01:22:53.525Z,925.43
2017-12-09T01:23:21.611Z,925.41
2017-12-09T01:23:49.605Z,925.42
2017-12-09T01:24:17.471Z,925.43
2017-12-09T01:24:45.390Z,925.39
2017-12-09T01:25:13.403Z,925.42
2017-12-09T01:25:41.501Z,925.43
2017-12-09T01:26:09.390Z,925.44
2017-12-09T01:26:37.385Z,925.37
2017-12-09T01:27:05.512Z,925.43
2017-12-09T01:27:33.515Z,925.45
2017-12-09T01:28:01.514Z,925.44
2017-12-09T01:28:29.512Z,925.41
2017-12-09T01:28:57.618Z,925.39
2017-12-09T01:29:25.608Z,925.39
2017-12-09T01:29:53.593Z,925.4
2017-12-09T01:30:21.603Z,925.44
2017-12-09T01:30:49.518Z,925.44
2017-12-09T01:31:17.741Z,925.44
2017-12-09T01:31:45.758Z,925.44
2017-12-09T01:32:13.664Z,925.45
2017-12-09T01:32:41.745Z,925.44
2017-12-09T01:33:09.863Z,925.47
2017-12-09T01:33:37.768Z,925.47
2017-12-09T01:34:05.846Z,925.44
2017-12-09T01:34:33.959Z,925.44
2017-12-09T01:35:01.971Z,925.44
2017-12-09T01:35:29.940Z,925.43
2017-12-09T01:35:57.941Z,925.44
2017-12-09T01:36:25.855Z,925.41
2017-12-09T01:36:53.959Z,925.45
2017-12-09T01:37:21.874Z,925.44
2017-12-09T01:37:49.747Z,925.46
2017-12-09T01:38:17.747Z,925.42
2017-12-09T01:38:45.891Z,925.41
2017-12-09T01:39:13.901Z,925.43
2017-12-09T01:39:41.900Z,925.4
2017-12-09T01:40:09.893Z,925.45
2017-12-09T01:40:37.989Z,925.43
2017-12-09T01:41:06.035Z,925.46
2017-12-09T01:41:34.285Z,925.42
2017-12-09T01:42:02.260Z,925.43
2017-12-09T01:42:30.382Z,925.43
2017-12-09T01:42:58.278Z,925.43
2017-12-09T01:43:26.362Z,925.41
2017-12-09T01:43:54.261Z,925.43
2017-12-09T01:44:22.254Z,925.42
2017-12-09T01:44:50.260Z,925.42
2017-12-09T01:45:18.264Z,925.46
2017-12-09T01:45:46.249Z,925.43
2017-12-09T01:46:14.282Z,925.42
2017-12-09T01:46:42.499Z,925.41
2017-12-09T01:47:10.501Z,925.45
2017-12-09T01:47:38.397Z,925.43
2017-12-09T01:48:06.327Z,925.41
2017-12-09T01:48:34.410Z,925.45
2017-12-09T01:49:02.513Z,925.42
2017-12-09T01:49:30.290Z,925.46
2017-12-09T01:49:58.390Z,925.49
2017-12-09T01:50:26.402Z,925.48
2017-12-09T01:50:54.302Z,925.49
2017-12-09T01:51:22.214Z,925.52
2017-12-09T01:51:50.286Z,925.48
2017-12-09T01:52:18.369Z,925.47
2017-12-09T01:52:46.375Z,925.49
2017-12-09T01:53:14.447Z,925.48
2017-12-09T01:53:42.376Z,925.49
2017-12-09T01:54:10.379Z,925.52
2017-12-09T01:54:38.369Z,925.5
2017-12-09T01:55:06.360Z,925.49
2017-12-09T01:55:34.349Z,925.54
2017-12-09T01:56:02.462Z,925.54
2017-12-09T01:56:30.453Z,925.54
2017-12-09T01:56:58.546Z,925.54
2017-12-09T01:57:26.470Z,925.54
2017-12-09T01:57:54.591Z,925.54
2017-12-09T01:58:22.510Z,925.52
2017-12-09T01:58:50.517Z,925.53
2017-12-09T01:59:18.512Z,925.55
2017-12-09T01:59:46.600Z,925.55
2017-12-09T02:00:14.692Z,925.52
2017-12-09T02:00:42.789Z,925.54
2017-12-09T02:01:10.774Z,925.51
2017-12-09T02:01:38.663Z,925.5
2017-12-09T02:02:06.585Z,925.52
2017-12-09T02:02:34.494Z,925.51
2017-12-09T02:03:02.502Z,925.51
2017-12-09T02:03:30.403Z,925.51
2017-12-09T02:03:58.401Z,925.5
2017-12-09T02:04:26.382Z,925.51
2017-12-09T02:04:54.278Z,925.51
2017-12-09T02:05:22.293Z,925.56
2017-12-09T02:05:50.296Z,925.54
2017-12-09T02:06:18.341Z,925.52
2017-12-09T02:06:46.325Z,925.54
2017-12-09T02:07:14.436Z,925.53
2017-12-09T02:07:42.532Z,925.55
2017-12-09T02:08:10.621Z,925.55
2017-12-09T02:08:38.641Z,925.55
2017-12-09T02:09:06.733Z,925.54
2017-12-09T02:09:34.734Z,925.53
2017-12-09T02:10:02.818Z,925.53
2017-12-09T02:10:30.718Z,925.52
2017-12-09T02:10:58.694Z,925.5
2017-12-09T02:11:26.679Z,925.52
2017-12-09T02:11:54.600Z,925.52
2017-12-09T02:12:22.687Z,925.5
2017-12-09T02:12:50.776Z,925.5
2017-12-09T02:13:18.888Z,925.45
2017-12-09T02:13:46.697Z,925.5
2017-12-09T02:14:14.698Z,925.52
2017-12-09T02:14:42.684Z,925.5
2017-12-09T02:15:10.750Z,925.46
2017-12-09T02:15:38.876Z,925.48
2017-12-09T02:16:06.971Z,925.45
2017-12-09T02:16:35.087Z,925.44
2017-12-09T02:17:03.282Z,925.48
2017-12-09T02:17:31.400Z,925.45
2017-12-09T02:17:59.403Z,925.46
2017-12-09T02:18:27.411Z,925.44
2017-12-09T02:18:55.337Z,925.45
2017-12-09T02:19:23.375Z,925.44
2017-12-09T02:19:51.367Z,925.44
2017-12-09T02:20:19.385Z,925.48
2017-12-09T02:20:47.390Z,925.49
2017-12-09T02:21:15.525Z,925.49
2017-12-09T02:21:43.601Z,925.51
2017-12-09T02:22:11.705Z,925.48
2017-12-09T02:22:39.683Z,925.46
2017-12-09T02:23:07.781Z,925.5
2017-12-09T02:23:35.686Z,925.49
2017-12-09T02:24:03.691Z,925.48
2017-12-09T02:24:31.690Z,925.47
2017-12-09T02:24:59.679Z,925.45
2017-12-09T02:25:27.696Z,925.48
2017-12-09T02:25:55.773Z,925.46
2017-12-09T02:26:23.651Z,925.48
2017-12-09T02:26:51.644Z,925.47
2017-12-09T02:27:19.786Z,925.48
2017-12-09T02:27:47.814Z,925.47
2017-12-09T02:28:15.843Z,925.47
2017-12-09T02:28:43.843Z,925.45
2017-12-09T02:29:11.879Z,925.46
2017-12-09T02:29:39.896Z,925.46
2017-12-09T02:30:07.997Z,925.47
2017-12-09T02:30:35.904Z,925.47
2017-12-09T02:31:04.078Z,925.45
2017-12-09T02:31:32.179Z,925.45
2017-12-09T02:32:00.344Z,925.45
2017-12-09T02:32:28.371Z,925.45
2017-12-09T02:32:56.494Z,925.42
2017-12-09T02:33:24.419Z,925.42
2017-12-09T02:33:52.219Z,925.4
2017-12-09T02:34:20.310Z,925.4
2017-12-09T02:34:48.232Z,925.41
2017-12-09T02:35:16.021Z,925.38
2017-12-09T02:35:44.123Z,925.4
2017-12-09T02:36:12.244Z,925.39
2017-12-09T02:36:40.239Z,925.38
2017-12-09T02:37:08.367Z,925.36
2017-12-09T02:37:36.410Z,925.35
2017-12-09T02:38:04.437Z,925.35
2017-12-09T02:38:32.356Z,925.35
2017-12-09T02:39:00.352Z,925.35
2017-12-09T02:39:28.471Z,925.33
2017-12-09T02:39:56.577Z,925.31
2017-12-09T02:40:24.726Z,925.32
2017-12-09T02:40:52.559Z,925.34
2017-12-09T02:41:20.458Z,925.3
2017-12-09T02:41:48.578Z,925.34
2017-12-09T02:42:16.683Z,925.31
2017-12-09T02:42:44.585Z,925.32
2017-12-09T02:43:12.678Z,925.29
2017-12-09T02:43:40.774Z,925.32
2017-12-09T02:44:08.898Z,925.28
2017-12-09T02:44:36.905Z,925.31
2017-12-09T02:45:04.915Z,925.29
2017-12-09T02:45:32.715Z,925.3
2017-12-09T02:46:00.580Z,925.31
2017-12-09T02:46:28.612Z,925.26
2017-12-09T02:46:56.697Z,925.25
2017-12-09T02:47:24.803Z,925.25
2017-12-09T02:47:52.787Z,925.2
2017-12-09T02:48:20.924Z,925.2
2017-12-09T02:48:48.929Z,925.19
2017-12-09T02:49:17.019Z,925.18
2017-12-09T02:49:45.017Z,925.21
2017-12-09T02:50:13.138Z,925.19
2017-12-09T02:50:41.270Z,925.19
2017-12-09T02:51:09.337Z,925.14
2017-12-09T02:51:37.425Z,925.12
2017-12-09T02:52:05.614Z,925.14
2017-12-09T02:52:33.526Z,925.09
2017-12-09T02:53:01.437Z,925.08
2017-12-09T02:53:29.428Z,925.07
2017-12-09T02:53:57.501Z,925.1
2017-12-09T02:54:25.494Z,925.08
2017-12-09T02:54:53.496Z,925.08
2017-12-09T02:55:21.495Z,925.04
2017-12-09T02:55:49.382Z,925.03
2017-12-09T02:56:17.398Z,925.01
2017-12-09T02:56:45.426Z,925.02
2017-12-09T02:57:13.612Z,924.99
2017-12-09T02:57:41.724Z,924.94
2017-12-09T02:58:09.840Z,924.95
2017-12-09T02:58:37.836Z,924.95
2017-12-09T02:59:05.736Z,924.97
2017-12-09T02:59:33.839Z,924.92
2017-12-09T03:00:01.747Z,924.92
2017-12-09T03:00:29.543Z,924.9
2017-12-09T03:00:57.414Z,924.95
2017-12-09T03:01:25.453Z,924.91
2017-12-09T03:01:53.557Z,924.91
2017-12-09T03:02:21.768Z,924.91
2017-12-09T03:02:49.867Z,924.9
2017-12-09T03:03:17.773Z,924.91
2017-12-09T03:03:45.746Z,924.85
2017-12-09T03:04:13.878Z,924.87
2017-12-09T03:04:42.000Z,924.86
2017-12-09T03:05:10.004Z,924.84
2017-12-09T03:05:38.115Z,924.8
2017-12-09T03:06:06.142Z,924.84
2017-12-09T03:06:34.038Z,924.78
2017-12-09T03:07:02.035Z,924.79
2017-12-09T03:07:30.234Z,924.79
2017-12-09T03:07:58.196Z,924.8
2017-12-09T03:08:26.105Z,924.79
2017-12-09T03:08:53.994Z,924.76
2017-12-09T03:09:22.091Z,924.77
2017-12-09T03:09:50.189Z,924.78
2017-12-09T03:10:18.111Z,924.8
2017-12-09T03:10:46.254Z,924.79
2017-12-09T03:11:14.312Z,924.8
2017-12-09T03:11:42.300Z,924.8
2017-12-09T03:12:10.441Z,924.78
2017-12-09T03:12:38.555Z,924.77
2017-12-09T03:13:06.591Z,924.77
2017-12-09T03:13:34.588Z,924.76
2017-12-09T03:14:02.591Z,924.77
2017-12-09T03:14:30.592Z,924.74
2017-12-09T03:14:58.507Z,924.78
2017-12-09T03:15:26.477Z,924.77
2017-12-09T03:15:54.471Z,924.74
2017-12-09T03:16:22.588Z,924.75
2017-12-09T03:16:50.712Z,924.74
2017-12-09T03:17:18.946Z,924.72
2017-12-09T03:17:46.740Z,924.71
2017-12-09T03:18:14.846Z,924.72
2017-12-09T03:18:42.642Z,924.72
2017-12-09T03:19:10.629Z,924.71
2017-12-09T03:19:38.644Z,924.69
2017-12-09T03:20:06.747Z,924.68
2017-12-09T03:20:34.839Z,924.68
2017-12-09T03:21:02.877Z,924.65
2017-12-09T03:21:30.877Z,924.66
2017-12-09T03:21:58.809Z,924.62
2017-12-09T03:22:27.006Z,924.65
2017-12-09T03:22:55.024Z,924.63
2017-12-09T03:23:22.945Z,924.62
2017-12-09T03:23:50.905Z,924.65
2017-12-09T03:24:19.017Z,924.62
2017-12-09T03:24:46.937Z,924.63
2017-12-09T03:25:14.858Z,924.63
2017-12-09T03:25:42.953Z,924.63
2017-12-09T03:26:11.053Z,924.63
2017-12-09T03:26:39.153Z,924.63
2017-12-09T03:27:07.259Z,924.64
2017-12-09T03:27:35.337Z,924.62
2017-12-09T03:28:03.334Z,924.63
2017-12-09T03:28:31.462Z,924.63
2017-12-09T03:28:59.593Z,924.63
2017-12-09T03:29:27.694Z,924.62
2017-12-09T03:29:55.711Z,924.61
2017-12-09T03:30:23.680Z,924.62
2017-12-09T03:30:51.799Z,924.6
2017-12-09T03:31:19.891Z,924.63
2017-12-09T03:31:47.773Z,924.61
2017-12-09T03:32:15.684Z,924.63
2017-12-09T03:32:43.893Z,924.64
2017-12-09T03:33:11.901Z,924.62
2017-12-09T03:33:39.847Z,924.63
2017-12-09T03:34:07.860Z,924.66
2017-12-09T03:34:35.941Z,924.6
2017-12-09T03:35:04.022Z,924.59
2017-12-09T03:35:32.065Z,924.59
2017-12-09T03:36:00.091Z,924.61
2017-12-09T03:36:28.109Z,924.6
2017-12-09T03:36:56.100Z,924.55
2017-12-09T03:37:24.300Z,924.57
2017-12-09T03:37:52.192Z,924.57
2017-12-09T03:38:20.318Z,924.56
2017-12-09T03:38:48.332Z,924.54
2017-12-09T03:39:16.251Z,924.55
2017-12-09T03:39:44.330Z,924.5
2017-12-09T03:40:12.290Z,924.49
2017-12-09T03:40:40.324Z,924.51
2017-12-09T03:41:08.436Z,924.52
2017-12-09T03:41:36.325Z,924.55
2017-12-09T03:42:04.351Z,924.52
2017-12-09T03:42:32.248Z,924.49
2017-12-09T03:43:00.351Z,924.52
2017-12-09T03:43:28.353Z,924.47
2017-12-09T03:43:56.325Z,924.46
2017-12-09T03:44:24.425Z,924.48
2017-12-09T03:44:52.464Z,924.51
2017-12-09T03:45:20.450Z,924.48
2017-12-09T03:45:48.466Z,924.47
2017-12-09T03:46:16.450Z,924.43
2017-12-09T03:46:44.246Z,924.42
2017-12-09T03:47:12.280Z,924.44
2017-12-09T03:47:40.469Z,924.41
2017-12-09T03:48:08.505Z,924.43
2017-12-09T03:48:36.516Z,924.43
2017-12-09T03:49:04.506Z,924.45
2017-12-09T03:49:32.301Z,924.43
2017-12-09T03:50:00.187Z,924.45
2017-12-09T03:50:28.178Z,924.46
2017-12-09T03:50:56.179Z,924.45
2017-12-09T03:51:24.172Z,924.5
2017-12-09T03:51:52.105Z,924.43
2017-12-09T03:52:19.989Z,924.44
2017-12-09T03:52:48.199Z,924.41
2017-12-09T03:53:16.173Z,924.43
2017-12-09T03:53:44.271Z,924.42
2017-12-09T03:54:12.198Z,924.44
2017-12-09T03:54:40.285Z,924.43
2017-12-09T03:55:08.315Z,924.4
2017-12-09T03:55:36.321Z,924.4
2017-12-09T03:56:04.381Z,924.39
2017-12-09T03:56:32.486Z,924.39
2017-12-09T03:57:00.596Z,924.37
2017-12-09T03:57:28.524Z,924.38
2017-12-09T03:57:56.848Z,924.35
2017-12-09T03:58:24.776Z,924.35
2017-12-09T03:58:52.695Z,924.35
2017-12-09T03:59:20.787Z,924.36
2017-12-09T03:59:48.698Z,924.32
2017-12-09T04:00:16.808Z,924.31
2017-12-09T04:00:44.893Z,924.32
2017-12-09T04:01:12.903Z,924.32
2017-12-09T04:01:40.930Z,924.3
2017-12-09T04:02:09.056Z,924.31
2017-12-09T04:02:37.234Z,924.28
2017-12-09T04:03:05.140Z,924.28
2017-12-09T04:03:33.054Z,924.31
2017-12-09T04:04:01.054Z,924.27
2017-12-09T04:04:29.087Z,924.29
2017-12-09T04:04:57.004Z,924.27
2017-12-09T04:05:24.990Z,924.3
2017-12-09T04:05:52.976Z,924.31
2017-12-09T04:06:20.997Z,924.31
2017-12-09T04:06:49.028Z,924.28
2017-12-09T04:07:17.151Z,924.3
2017-12-09T04:07:45.386Z,924.25
2017-12-09T04:08:13.453Z,924.27
2017-12-09T04:08:41.552Z,924.24
2017-12-09T04:09:09.665Z,924.24
2017-12-09T04:09:37.573Z,924.23
2017-12-09T04:10:05.692Z,924.2
2017-12-09T04:10:33.608Z,924.22
2017-12-09T04:11:01.715Z,924.2
2017-12-09T04:11:29.694Z,924.18
2017-12-09T04:11:57.716Z,924.19
2017-12-09T04:12:25.662Z,924.19
2017-12-09T04:12:53.934Z,924.15
2017-12-09T04:13:21.975Z,924.21
2017-12-09T04:13:50.037Z,924.19
2017-12-09T04:14:18.032Z,924.18
2017-12-09T04:14:46.127Z,924.22
2017-12-09T04:15:14.011Z,924.22
2017-12-09T04:15:42.015Z,924.21
2017-12-09T04:16:09.993Z,924.18
2017-12-09T04:16:37.772Z,924.22
2017-12-09T04:17:05.684Z,924.21
2017-12-09T04:17:33.702Z,924.25
2017-12-09T04:18:01.905Z,924.25
2017-12-09T04:18:29.984Z,924.28
2017-12-09T04:18:57.757Z,924.3
2017-12-09T04:19:25.743Z,924.29
2017-12-09T04:19:53.757Z,924.3
2017-12-09T04:20:21.921Z,924.34
2017-12-09T04:20:49.959Z,924.32
2017-12-09T04:21:18.059Z,924.34
2017-12-09T04:21:46.193Z,924.35
2017-12-09T04:22:14.199Z,924.36
2017-12-09T04:22:42.200Z,924.34
2017-12-09T04:23:10.454Z,924.35
2017-12-09T04:23:38.457Z,924.36
2017-12-09T04:24:06.441Z,924.33
2017-12-09T04:24:34.447Z,924.32
2017-12-09T04:25:02.371Z,924.3
2017-12-09T04:25:30.383Z,924.3
2017-12-09T04:25:58.302Z,924.28
2017-12-09T04:26:26.406Z,924.27
2017-12-09T04:26:54.412Z,924.27
2017-12-09T04:27:22.421Z,924.26
2017-12-09T04:27:50.526Z,924.23
2017-12-09T04:28:18.614Z,924.26
2017-12-09T04:28:46.724Z,924.27
2017-12-09T04:29:14.813Z,924.24
2017-12-09T04:29:42.833Z,924.25
2017-12-09T04:30:10.787Z,924.3
2017-12-09T04:30:38.870Z,924.29
2017-12-09T04:31:06.845Z,924.27
2017-12-09T04:31:34.847Z,924.34
2017-12-09T04:32:02.719Z,924.32
2017-12-09T04:32:30.703Z,924.3
2017-12-09T04:32:58.802Z,924.31
2017-12-09T04:33:26.778Z,924.32
2017-12-09T04:33:54.761Z,924.33
2017-12-09T04:34:22.590Z,924.32
2017-12-09T04:34:50.590Z,924.28
2017-12-09T04:35:18.685Z,924.32
2017-12-09T04:35:46.776Z,924.32
2017-12-09T04:36:14.784Z,924.31
2017-12-09T04:36:42.868Z,924.3
2017-12-09T04:37:10.952Z,924.32
2017-12-09T04:37:39.064Z,924.34
2017-12-09T04:38:07.103Z,924.31
2017-12-09T04:38:35.207Z,924.3
2017-12-09T04:39:03.194Z,924.33
2017-12-09T04:39:31.196Z,924.29
2017-12-09T04:39:59.294Z,924.3
2017-12-09T04:40:27.287Z,924.26
2017-12-09T04:40:55.180Z,924.27
2017-12-09T04:41:23.196Z,924.27
2017-12-09T04:41:51.307Z,924.26
2017-12-09T04:42:19.395Z,924.26
2017-12-09T04:42:47.384Z,924.24
2017-12-09T04:43:15.513Z,924.23
2017-12-09T04:43:43.410Z,924.24
2017-12-09T04:44:11.536Z,924.27
2017-12-09T04:44:39.561Z,924.24
2017-12-09T04:45:07.559Z,924.21
2017-12-09T04:45:35.673Z,924.24
2017-12-09T04:46:03.660Z,924.26
2017-12-09T04:46:31.677Z,924.24
2017-12-09T04:46:59.648Z,924.22
2017-12-09T04:47:27.662Z,924.27
2017-12-09T04:47:55.772Z,924.27
2017-12-09T04:48:23.939Z,924.23
2017-12-09T04:48:51.929Z,924.26
2017-12-09T04:49:20.021Z,924.28
2017-12-09T04:49:48.102Z,924.29
2017-12-09T04:50:16.194Z,924.28
2017-12-09T04:50:44.270Z,924.3
2017-12-09T04:51:12.291Z,924.26
2017-12-09T04:51:40.286Z,924.26
2017-12-09T04:52:08.404Z,924.29
2017-12-09T04:52:36.403Z,924.27
2017-12-09T04:53:04.508Z,924.27
2017-12-09T04:53:32.609Z,924.27
2017-12-09T04:54:00.526Z,924.24
2017-12-09T04:54:28.636Z,924.21
2017-12-09T04:54:56.664Z,924.21
2017-12-09T04:55:24.541Z,924.19
2017-12-09T04:55:52.630Z,924.12
2017-12-09T04:56:20.623Z,924.17
2017-12-09T04:56:48.729Z,924.18
2017-12-09T04:57:16.759Z,924.13
2017-12-09T04:57:44.861Z,924.13
2017-12-09T04:58:12.904Z,924.15
2017-12-09T04:58:40.899Z,924.14
2017-12-09T04:59:08.898Z,924.12
2017-12-09T04:59:36.906Z,924.12
2017-12-09T05:00:04.981Z,924.15
2017-12-09T05:00:32.973Z,924.16
2017-12-09T05:01:00.975Z,924.19
2017-12-09T05:01:29.002Z,924.14
2017-12-09T05:01:57.090Z,924.14
2017-12-09T05:02:24.957Z,924.16
2017-12-09T05:02:52.954Z,924.15
2017-12-09T05:03:21.068Z,924.14
2017-12-09T05:03:49.193Z,924.13
2017-12-09T05:04:17.210Z,924.16
2017-12-09T05:04:45.209Z,924.17
2017-12-09T05:05:13.294Z,924.15
2017-12-09T05:05:41.187Z,924.13
2017-12-09T05:06:09.297Z,924.14
2017-12-09T05:06:37.161Z,924.12
2017-12-09T05:07:05.146Z,924.13
2017-12-09T05:07:33.235Z,924.08
2017-12-09T05:08:01.271Z,924.08
2017-12-09T05:08:29.366Z,924.1
2017-12-09T05:08:57.468Z,924.09
2017-12-09T05:09:25.481Z,924.1
2017-12-09T05:09:53.584Z,924.09
2017-12-09T05:10:21.705Z,924.1
2017-12-09T05:10:49.819Z,924.07
2017-12-09T05:11:17.800Z,924.09
2017-12-09T05:11:45.781Z,924.09
2017-12-09T05:12:13.693Z,924.1
2017-12-09T05:12:41.689Z,924.09
2017-12-09T05:13:09.792Z,924.09
2017-12-09T05:13:38.025Z,924.07
2017-12-09T05:14:06.015Z,924.07
2017-12-09T05:14:34.026Z,924.08
2017-12-09T05:15:02.102Z,924.08
2017-12-09T05:15:30.018Z,924.06
2017-12-09T05:15:58.030Z,924.05
2017-12-09T05:16:26.024Z,924.04
2017-12-09T05:16:54.126Z,924.06
2017-12-09T05:17:22.229Z,924.04
2017-12-09T05:17:50.211Z,924.02
2017-12-09T05:18:18.356Z,924.01
2017-12-09T05:18:46.267Z,924
2017-12-09T05:19:14.331Z,923.98
2017-12-09T05:19:42.341Z,923.99
2017-12-09T05:20:10.338Z,924.01
2017-12-09T05:20:38.158Z,924.03
2017-12-09T05:21:06.266Z,923.98
2017-12-09T05:21:34.350Z,923.97
2017-12-09T05:22:02.451Z,923.98
2017-12-09T05:22:30.562Z,923.98
2017-12-09T05:22:58.664Z,923.97
2017-12-09T05:23:26.573Z,923.98
2017-12-09T05:23:54.702Z,923.96
2017-12-09T05:24:22.707Z,923.94
2017-12-09T05:24:50.819Z,923.93
2017-12-09T05:25:18.928Z,923.92
2017-12-09T05:25:46.942Z,923.94
2017-12-09T05:26:14.954Z,923.93
2017-12-09T05:26:42.962Z,923.94
2017-12-09T05:27:11.061Z,923.92
2017-12-09T05:27:39.074Z,923.95
2017-12-09T05:28:06.968Z,923.91
2017-12-09T05:28:35.075Z,923.89
2017-12-09T05:29:03.092Z,923.9
2017-12-09T05:29:31.212Z,923.94
2017-12-09T05:29:59.199Z,923.94
2017-12-09T05:30:27.187Z,923.95
2017-12-09T05:30:55.119Z,923.91
2017-12-09T05:31:23.028Z,923.94
2017-12-09T05:31:51.029Z,923.92
2017-12-09T05:32:19.115Z,923.9
2017-12-09T05:32:47.202Z,923.89
2017-12-09T05:33:15.257Z,923.89
2017-12-09T05:33:43.260Z,923.89
2017-12-09T05:34:11.294Z,923.85
2017-12-09T05:34:39.381Z,923.86
2017-12-09T05:35:07.505Z,923.84
2017-12-09T05:35:35.548Z,923.84
2017-12-09T05:36:03.669Z,923.86
2017-12-09T05:36:31.773Z,923.84
2017-12-09T05:36:59.674Z,923.87
2017-12-09T05:37:27.667Z,923.87
2017-12-09T05:37:55.678Z,923.88
2017-12-09T05:38:23.567Z,923.85
2017-12-09T05:38:51.608Z,923.85
2017-12-09T05:39:19.540Z,923.9
2017-12-09T05:39:47.561Z,923.9
2017-12-09T05:40:15.475Z,923.88
2017-12-09T05:40:43.481Z,923.91
2017-12-09T05:41:11.491Z,923.91
2017-12-09T05:41:39.576Z,923.93
2017-12-09T05:42:07.580Z,923.93
2017-12-09T05:42:35.651Z,923.95
2017-12-09T05:43:03.650Z,923.96
2017-12-09T05:43:31.872Z,923.92
2017-12-09T05:43:59.764Z,923.93
2017-12-09T05:44:27.948Z,923.95
2017-12-09T05:44:55.983Z,923.97
2017-12-09T05:45:24.102Z,923.99
2017-12-09T05:45:51.994Z,923.98
2017-12-09T05:46:19.865Z,923.97
2017-12-09T05:46:47.894Z,923.99
2017-12-09T05:47:15.901Z,923.98
2017-12-09T05:47:43.928Z,923.99
2017-12-09T05:48:11.944Z,924.01
2017-12-09T05:48:40.188Z,924.01
2017-12-09T05:49:08.195Z,924.01
2017-12-09T05:49:36.210Z,924.02
2017-12-09T05:50:04.203Z,924.01
2017-12-09T05:50:32.235Z,923.98